sensor_id;sensor_type;location;lat;lon;timestamp;pressure;altitude;pressure_sealevel;temperature;humidity
35553;BME280;21656;46.054;13.614;2023-05-01T06:04:22;100543.66;;;15.78;56.86
35553;BME280;21656;46.054;13.614;2023-05-01T06:06:47;100556.38;;;15.95;55.98
35553;BME280;21656;46.054;13.614;2023-05-01T06:09:12;100549.84;;;16.06;56.19
35553;BME280;21656;46.054;13.614;2023-05-01T06:11:38;100559.75;;;16.15;54.99
35553;BME280;21656;46.054;13.614;2023-05-01T06:14:04;100545.44;;;16.23;54.44
35553;BME280;21656;46.054;13.614;2023-05-01T06:16:31;100558.38;;;16.29;55.70
35553;BME280;21656;46.054;13.614;2023-05-01T06:18:56;100546.00;;;16.35;53.15
35553;BME280;21656;46.054;13.614;2023-05-01T06:21:21;100547.81;;;16.26;53.01
35553;BME280;21656;46.054;13.614;2023-05-01T06:23:47;100553.47;;;16.33;53.53
35553;BME280;21656;46.054;13.614;2023-05-01T06:26:12;100569.22;;;16.47;54.20
35553;BME280;21656;46.054;13.614;2023-05-01T06:28:37;100559.59;;;16.61;54.36
35553;BME280;21656;46.054;13.614;2023-05-01T06:31:02;100562.34;;;16.61;53.23
35553;BME280;21656;46.054;13.614;2023-05-01T06:33:28;100561.34;;;16.62;52.90
35553;BME280;21656;46.054;13.614;2023-05-01T06:35:53;100582.91;;;16.63;51.88
35553;BME280;21656;46.054;13.614;2023-05-01T06:38:19;100568.47;;;16.63;51.91
35553;BME280;21656;46.054;13.614;2023-05-01T06:40:44;100582.59;;;16.84;50.78
35553;BME280;21656;46.054;13.614;2023-05-01T06:43:11;100587.03;;;16.94;52.14
35553;BME280;21656;46.054;13.614;2023-05-01T06:45:36;100584.41;;;17.02;52.17
35553;BME280;21656;46.054;13.614;2023-05-01T06:48:04;100587.75;;;16.96;50.53
35553;BME280;21656;46.054;13.614;2023-05-01T06:50:29;100561.53;;;16.86;50.26
35553;BME280;21656;46.054;13.614;2023-05-01T06:52:54;100584.84;;;16.89;50.69
35553;BME280;21656;46.054;13.614;2023-05-01T06:55:20;100593.56;;;17.01;50.21
35553;BME280;21656;46.054;13.614;2023-05-01T06:57:45;100592.81;;;17.17;52.45
35553;BME280;21656;46.054;13.614;2023-05-01T07:00:10;100591.00;;;17.33;50.99
35553;BME280;21656;46.054;13.614;2023-05-01T07:02:36;100591.25;;;17.57;50.64
35553;BME280;21656;46.054;13.614;2023-05-01T07:05:02;100588.03;;;17.61;50.07
35553;BME280;21656;46.054;13.614;2023-05-01T07:07:27;100584.50;;;17.69;50.10
35553;BME280;21656;46.054;13.614;2023-05-01T07:09:54;100593.66;;;17.60;49.90
35553;BME280;21656;46.054;13.614;2023-05-01T07:12:20;100590.47;;;17.72;49.85
35553;BME280;21656;46.054;13.614;2023-05-01T07:14:46;100589.94;;;17.77;49.41
35553;BME280;21656;46.054;13.614;2023-05-01T07:17:11;100593.88;;;17.74;49.17
35553;BME280;21656;46.054;13.614;2023-05-01T07:19:37;100611.56;;;17.70;48.84
35553;BME280;21656;46.054;13.614;2023-05-01T07:22:02;100595.75;;;17.74;48.29
35553;BME280;21656;46.054;13.614;2023-05-01T07:24:28;100596.59;;;17.74;49.50
35553;BME280;21656;46.054;13.614;2023-05-01T07:26:53;100606.81;;;17.72;49.30
35553;BME280;21656;46.054;13.614;2023-05-01T07:29:20;100598.25;;;17.59;48.95
35553;BME280;21656;46.054;13.614;2023-05-01T07:31:45;100607.56;;;17.48;48.99
35553;BME280;21656;46.054;13.614;2023-05-01T07:34:12;100612.78;;;17.33;48.82
35553;BME280;21656;46.054;13.614;2023-05-01T07:36:37;100608.25;;;17.16;48.58
35553;BME280;21656;46.054;13.614;2023-05-01T07:39:03;100594.94;;;17.05;50.07
35553;BME280;21656;46.054;13.614;2023-05-01T07:41:29;100606.97;;;16.94;49.96
35553;BME280;21656;46.054;13.614;2023-05-01T07:43:56;100603.53;;;16.92;51.70
35553;BME280;21656;46.054;13.614;2023-05-01T07:46:22;100598.72;;;16.86;50.25
35553;BME280;21656;46.054;13.614;2023-05-01T07:48:47;100608.56;;;16.79;50.40
35553;BME280;21656;46.054;13.614;2023-05-01T07:51:12;100601.97;;;16.81;51.76
35553;BME280;21656;46.054;13.614;2023-05-01T07:53:38;100612.50;;;16.84;50.26
35553;BME280;21656;46.054;13.614;2023-05-01T07:56:06;100608.69;;;17.03;49.60
35553;BME280;21656;46.054;13.614;2023-05-01T07:58:32;100587.31;;;17.08;49.47
35553;BME280;21656;46.054;13.614;2023-05-01T08:00:58;100611.69;;;17.18;49.08
35553;BME280;21656;46.054;13.614;2023-05-01T08:03:26;100598.06;;;17.52;50.57
35553;BME280;21656;46.054;13.614;2023-05-01T08:05:51;100584.34;;;17.70;49.65
35553;BME280;21656;46.054;13.614;2023-05-01T08:08:16;100600.94;;;17.85;48.54
35553;BME280;21656;46.054;13.614;2023-05-01T08:10:44;100599.41;;;17.91;47.81
35553;BME280;21656;46.054;13.614;2023-05-01T08:13:09;100581.53;;;17.96;48.18
35553;BME280;21656;46.054;13.614;2023-05-01T08:15:35;100591.25;;;18.07;47.91
35553;BME280;21656;46.054;13.614;2023-05-01T08:18:03;100598.75;;;18.13;47.43
35553;BME280;21656;46.054;13.614;2023-05-01T08:20:28;100606.78;;;18.31;47.66
35553;BME280;21656;46.054;13.614;2023-05-01T08:22:53;100594.00;;;18.40;47.45
35553;BME280;21656;46.054;13.614;2023-05-01T08:25:18;100601.66;;;18.53;46.95
35553;BME280;21656;46.054;13.614;2023-05-01T08:27:44;100598.25;;;18.51;46.07
35553;BME280;21656;46.054;13.614;2023-05-01T08:30:09;100588.38;;;18.50;46.12
35553;BME280;21656;46.054;13.614;2023-05-01T08:32:34;100587.00;;;18.37;46.34
35553;BME280;21656;46.054;13.614;2023-05-01T08:35:00;100589.22;;;18.34;46.44
35553;BME280;21656;46.054;13.614;2023-05-01T08:37:25;100578.66;;;18.47;46.70
35553;BME280;21656;46.054;13.614;2023-05-01T08:39:50;100592.13;;;18.57;46.94
35553;BME280;21656;46.054;13.614;2023-05-01T08:42:16;100583.75;;;18.67;46.11
35553;BME280;21656;46.054;13.614;2023-05-01T08:44:42;100585.97;;;18.63;45.99
35553;BME280;21656;46.054;13.614;2023-05-01T08:49:39;100584.94;;;18.80;45.52
35553;BME280;21656;46.054;13.614;2023-05-01T08:52:05;100590.06;;;18.92;45.71
35553;BME280;21656;46.054;13.614;2023-05-01T08:54:30;100584.06;;;19.04;45.34
35553;BME280;21656;46.054;13.614;2023-05-01T08:56:56;100572.72;;;19.32;45.53
35553;BME280;21656;46.054;13.614;2023-05-01T08:59:26;100573.56;;;19.33;44.74
35553;BME280;21656;46.054;13.614;2023-05-01T09:01:52;100579.78;;;19.49;45.48
35553;BME280;21656;46.054;13.614;2023-05-01T09:04:18;100573.25;;;19.59;44.68
35553;BME280;21656;46.054;13.614;2023-05-01T09:06:44;100589.53;;;19.83;45.01
35553;BME280;21656;46.054;13.614;2023-05-01T09:09:09;100582.63;;;19.96;43.26
35553;BME280;21656;46.054;13.614;2023-05-01T09:11:34;100575.81;;;19.91;43.83
35553;BME280;21656;46.054;13.614;2023-05-01T09:14:01;100578.88;;;19.97;43.63
35553;BME280;21656;46.054;13.614;2023-05-01T09:16:29;100576.44;;;20.02;43.14
35553;BME280;21656;46.054;13.614;2023-05-01T09:18:55;100571.78;;;20.10;42.92
35553;BME280;21656;46.054;13.614;2023-05-01T09:21:21;100574.06;;;19.99;42.47
35553;BME280;21656;46.054;13.614;2023-05-01T09:23:49;100569.88;;;19.88;43.01
35553;BME280;21656;46.054;13.614;2023-05-01T09:26:15;100571.34;;;19.99;44.13
35553;BME280;21656;46.054;13.614;2023-05-01T09:28:44;100568.59;;;19.99;44.18
35553;BME280;21656;46.054;13.614;2023-05-01T09:31:19;100570.00;;;20.18;43.13
35553;BME280;21656;46.054;13.614;2023-05-01T09:34:18;100549.41;;;20.30;42.76
35553;BME280;21656;46.054;13.614;2023-05-01T09:36:36;100563.59;;;20.25;43.61
35553;BME280;21656;46.054;13.614;2023-05-01T09:39:02;100549.31;;;20.38;43.38
35553;BME280;21656;46.054;13.614;2023-05-01T09:41:28;100558.84;;;20.42;42.94
35553;BME280;21656;46.054;13.614;2023-05-01T09:43:55;100561.97;;;20.62;43.23
35553;BME280;21656;46.054;13.614;2023-05-01T09:46:22;100560.16;;;20.54;41.70
35553;BME280;21656;46.054;13.614;2023-05-01T09:48:52;100563.75;;;20.32;42.29
35553;BME280;21656;46.054;13.614;2023-05-01T09:53:45;100552.25;;;20.37;43.90
35553;BME280;21656;46.054;13.614;2023-05-01T09:56:10;100551.31;;;20.44;43.38
35553;BME280;21656;46.054;13.614;2023-05-01T09:58:35;100549.56;;;20.51;44.18
35553;BME280;21656;46.054;13.614;2023-05-01T10:01:01;100560.75;;;20.65;42.80
35553;BME280;21656;46.054;13.614;2023-05-01T10:03:26;100554.81;;;20.61;43.09
35553;BME280;21656;46.054;13.614;2023-05-01T10:05:51;100551.13;;;20.69;42.98
35553;BME280;21656;46.054;13.614;2023-05-01T10:08:20;100551.72;;;20.79;42.11
35553;BME280;21656;46.054;13.614;2023-05-01T10:10:58;100554.25;;;20.95;44.54
35553;BME280;21656;46.054;13.614;2023-05-01T10:13:23;100545.88;;;20.97;42.86
35553;BME280;21656;46.054;13.614;2023-05-01T10:15:48;100543.84;;;20.61;42.36
35553;BME280;21656;46.054;13.614;2023-05-01T10:18:14;100545.94;;;20.59;42.61
35553;BME280;21656;46.054;13.614;2023-05-01T10:20:40;100544.63;;;20.85;43.85
35553;BME280;21656;46.054;13.614;2023-05-01T10:23:06;100550.13;;;21.14;43.13
35553;BME280;21656;46.054;13.614;2023-05-01T10:25:32;100548.22;;;21.30;42.05
35553;BME280;21656;46.054;13.614;2023-05-01T10:27:57;100544.88;;;21.49;41.76
35553;BME280;21656;46.054;13.614;2023-05-01T10:30:24;100540.22;;;21.64;41.54
35553;BME280;21656;46.054;13.614;2023-05-01T10:32:50;100549.03;;;21.60;40.58
35553;BME280;21656;46.054;13.614;2023-05-01T10:35:18;100539.34;;;21.42;40.51
35553;BME280;21656;46.054;13.614;2023-05-01T10:37:50;100545.94;;;21.48;42.38
35553;BME280;21656;46.054;13.614;2023-05-01T10:45:40;100535.94;;;21.77;40.78
35553;BME280;21656;46.054;13.614;2023-05-01T10:48:05;100528.19;;;21.80;41.03
35553;BME280;21656;46.054;13.614;2023-05-01T10:50:31;100530.84;;;21.74;40.09
35553;BME280;21656;46.054;13.614;2023-05-01T10:55:36;100526.94;;;22.04;41.94
35553;BME280;21656;46.054;13.614;2023-05-01T10:58:01;100522.13;;;22.28;39.97
35553;BME280;21656;46.054;13.614;2023-05-01T11:00:27;100527.63;;;22.84;42.12
35553;BME280;21656;46.054;13.614;2023-05-01T11:08:30;100514.53;;;22.52;39.24
35553;BME280;21656;46.054;13.614;2023-05-01T11:10:55;100521.94;;;22.58;39.48
35553;BME280;21656;46.054;13.614;2023-05-01T11:18:48;100511.56;;;22.25;40.24
35553;BME280;21656;46.054;13.614;2023-05-01T11:21:14;100509.97;;;22.37;40.29
35553;BME280;21656;46.054;13.614;2023-05-01T11:23:44;100512.88;;;22.57;40.77
35553;BME280;21656;46.054;13.614;2023-05-01T11:26:10;100513.94;;;22.91;40.59
35553;BME280;21656;46.054;13.614;2023-05-01T11:28:36;100508.31;;;22.99;38.84
35553;BME280;21656;46.054;13.614;2023-05-01T11:31:02;100501.59;;;23.08;38.99
35553;BME280;21656;46.054;13.614;2023-05-01T11:33:27;100500.94;;;23.06;38.50
35553;BME280;21656;46.054;13.614;2023-05-01T11:35:56;100495.94;;;22.82;39.31
35553;BME280;21656;46.054;13.614;2023-05-01T11:38:22;100497.63;;;22.83;39.68
35553;BME280;21656;46.054;13.614;2023-05-01T11:40:52;100502.19;;;22.69;39.16
35553;BME280;21656;46.054;13.614;2023-05-01T11:43:18;100498.03;;;22.80;39.03
35553;BME280;21656;46.054;13.614;2023-05-01T11:45:43;100489.75;;;23.08;41.07
35553;BME280;21656;46.054;13.614;2023-05-01T11:48:13;100495.13;;;23.23;39.04
35553;BME280;21656;46.054;13.614;2023-05-01T11:50:38;100492.75;;;23.13;38.15
35553;BME280;21656;46.054;13.614;2023-05-01T11:53:09;100482.81;;;23.12;39.14
35553;BME280;21656;46.054;13.614;2023-05-01T11:55:35;100492.56;;;23.14;39.85
35553;BME280;21656;46.054;13.614;2023-05-01T11:58:02;100485.81;;;23.24;39.76
35553;BME280;21656;46.054;13.614;2023-05-01T12:00:29;100485.63;;;23.32;39.52
35553;BME280;21656;46.054;13.614;2023-05-01T12:02:56;100474.66;;;23.39;40.28
35553;BME280;21656;46.054;13.614;2023-05-01T12:05:21;100475.56;;;23.52;38.19
35553;BME280;21656;46.054;13.614;2023-05-01T12:07:47;100479.84;;;23.68;37.74
35553;BME280;21656;46.054;13.614;2023-05-01T12:10:12;100472.50;;;23.75;37.52
35553;BME280;21656;46.054;13.614;2023-05-01T12:12:38;100476.94;;;23.90;37.40
35553;BME280;21656;46.054;13.614;2023-05-01T12:15:03;100479.25;;;23.79;37.96
35553;BME280;21656;46.054;13.614;2023-05-01T12:17:29;100475.63;;;23.72;38.46
35553;BME280;21656;46.054;13.614;2023-05-01T12:19:54;100476.50;;;23.79;37.52
35553;BME280;21656;46.054;13.614;2023-05-01T12:22:20;100476.84;;;23.70;37.64
35553;BME280;21656;46.054;13.614;2023-05-01T12:24:51;100468.59;;;23.56;38.17
35553;BME280;21656;46.054;13.614;2023-05-01T12:27:18;100471.69;;;23.33;38.33
35553;BME280;21656;46.054;13.614;2023-05-01T12:29:43;100467.41;;;23.18;38.93
35553;BME280;21656;46.054;13.614;2023-05-01T12:32:11;100464.50;;;22.91;39.05
35553;BME280;21656;46.054;13.614;2023-05-01T12:34:36;100457.16;;;22.91;39.20
35553;BME280;21656;46.054;13.614;2023-05-01T12:37:02;100473.84;;;22.97;39.66
35553;BME280;21656;46.054;13.614;2023-05-01T12:39:34;100469.72;;;23.07;40.01
35553;BME280;21656;46.054;13.614;2023-05-01T12:42:02;100473.16;;;23.23;40.28
35553;BME280;21656;46.054;13.614;2023-05-01T12:44:27;100456.72;;;22.94;39.76
35553;BME280;21656;46.054;13.614;2023-05-01T12:49:20;100460.97;;;22.62;40.74
35553;BME280;21656;46.054;13.614;2023-05-01T12:51:48;100460.94;;;22.56;41.36
35553;BME280;21656;46.054;13.614;2023-05-01T12:54:20;100456.56;;;22.61;42.03
35553;BME280;21656;46.054;13.614;2023-05-01T12:56:46;100466.38;;;22.49;40.90
35553;BME280;21656;46.054;13.614;2023-05-01T12:59:21;100459.28;;;22.33;41.60
35553;BME280;21656;46.054;13.614;2023-05-01T13:01:47;100451.25;;;22.03;42.00
35553;BME280;21656;46.054;13.614;2023-05-01T13:04:19;100446.50;;;21.91;41.94
35553;BME280;21656;46.054;13.614;2023-05-01T13:06:44;100444.66;;;21.76;42.18
35553;BME280;21656;46.054;13.614;2023-05-01T13:09:09;100443.09;;;21.67;42.05
35553;BME280;21656;46.054;13.614;2023-05-01T13:11:35;100446.47;;;21.69;42.89
35553;BME280;21656;46.054;13.614;2023-05-01T13:14:07;100442.78;;;21.55;42.67
35553;BME280;21656;46.054;13.614;2023-05-01T13:16:33;100447.31;;;21.48;43.32
35553;BME280;21656;46.054;13.614;2023-05-01T13:18:58;100445.16;;;21.43;43.58
35553;BME280;21656;46.054;13.614;2023-05-01T13:21:23;100448.41;;;21.32;43.68
35553;BME280;21656;46.054;13.614;2023-05-01T13:23:56;100443.78;;;21.18;43.49
35553;BME280;21656;46.054;13.614;2023-05-01T13:26:25;100436.94;;;21.07;44.31
35553;BME280;21656;46.054;13.614;2023-05-01T13:28:51;100446.00;;;20.93;44.04
35553;BME280;21656;46.054;13.614;2023-05-01T13:31:17;100434.50;;;20.83;44.38
35553;BME280;21656;46.054;13.614;2023-05-01T13:33:42;100443.22;;;20.71;45.38
35553;BME280;21656;46.054;13.614;2023-05-01T13:36:08;100434.63;;;20.60;44.66
35553;BME280;21656;46.054;13.614;2023-05-01T13:38:38;100430.19;;;20.59;44.95
35553;BME280;21656;46.054;13.614;2023-05-01T13:41:05;100427.88;;;20.47;46.00
35553;BME280;21656;46.054;13.614;2023-05-01T13:43:30;100424.00;;;20.42;45.83
35553;BME280;21656;46.054;13.614;2023-05-01T13:45:56;100426.47;;;20.37;46.21
35553;BME280;21656;46.054;13.614;2023-05-01T13:48:21;100429.94;;;20.30;46.39
35553;BME280;21656;46.054;13.614;2023-05-01T13:50:47;100428.25;;;20.29;46.18
35553;BME280;21656;46.054;13.614;2023-05-01T13:53:14;100416.94;;;20.32;46.38
35553;BME280;21656;46.054;13.614;2023-05-01T13:55:39;100434.56;;;20.30;47.68
35553;BME280;21656;46.054;13.614;2023-05-01T13:58:06;100427.56;;;20.27;46.44
35553;BME280;21656;46.054;13.614;2023-05-01T14:00:31;100429.56;;;20.19;47.71
35553;BME280;21656;46.054;13.614;2023-05-01T14:02:57;100429.56;;;20.19;47.81
35553;BME280;21656;46.054;13.614;2023-05-01T14:05:25;100429.06;;;20.15;48.17
35553;BME280;21656;46.054;13.614;2023-05-01T14:07:55;100430.88;;;20.08;48.03
35553;BME280;21656;46.054;13.614;2023-05-01T14:10:22;100437.44;;;19.99;47.68
35553;BME280;21656;46.054;13.614;2023-05-01T14:12:47;100436.63;;;19.90;47.65
35553;BME280;21656;46.054;13.614;2023-05-01T14:15:12;100435.88;;;19.81;48.22
35553;BME280;21656;46.054;13.614;2023-05-01T14:17:38;100437.56;;;19.82;47.80
35553;BME280;21656;46.054;13.614;2023-05-01T14:20:04;100438.69;;;19.73;48.25
35553;BME280;21656;46.054;13.614;2023-05-01T14:22:50;100438.72;;;19.65;49.19
35553;BME280;21656;46.054;13.614;2023-05-01T14:25:22;100441.78;;;19.70;50.09
35553;BME280;21656;46.054;13.614;2023-05-01T14:27:48;100447.03;;;19.72;50.13
35553;BME280;21656;46.054;13.614;2023-05-01T14:30:33;100443.47;;;19.71;49.60
35553;BME280;21656;46.054;13.614;2023-05-01T14:33:02;100442.13;;;19.67;49.88
35553;BME280;21656;46.054;13.614;2023-05-01T14:35:27;100449.97;;;19.62;49.70
35553;BME280;21656;46.054;13.614;2023-05-01T14:37:53;100453.28;;;19.57;50.05
35553;BME280;21656;46.054;13.614;2023-05-01T14:40:21;100456.34;;;19.54;51.85
35553;BME280;21656;46.054;13.614;2023-05-01T14:42:47;100457.94;;;19.48;55.32
35553;BME280;21656;46.054;13.614;2023-05-01T14:45:13;100461.31;;;19.27;54.30
35553;BME280;21656;46.054;13.614;2023-05-01T14:47:42;100467.47;;;19.21;53.81
35553;BME280;21656;46.054;13.614;2023-05-01T14:50:09;100462.38;;;19.18;55.20
35553;BME280;21656;46.054;13.614;2023-05-01T14:52:35;100453.16;;;19.19;54.71
35553;BME280;21656;46.054;13.614;2023-05-01T14:55:02;100467.13;;;19.24;55.34
35553;BME280;21656;46.054;13.614;2023-05-01T14:57:28;100459.16;;;19.15;56.30
35553;BME280;21656;46.054;13.614;2023-05-01T14:59:53;100472.13;;;19.13;59.35
35553;BME280;21656;46.054;13.614;2023-05-01T15:02:18;100469.56;;;19.11;58.10
35553;BME280;21656;46.054;13.614;2023-05-01T15:04:44;100468.03;;;19.09;58.93
35553;BME280;21656;46.054;13.614;2023-05-01T15:07:09;100478.53;;;18.97;59.54
35553;BME280;21656;46.054;13.614;2023-05-01T15:09:34;100484.88;;;18.89;59.10
35553;BME280;21656;46.054;13.614;2023-05-01T15:11:59;100481.13;;;18.82;60.03
35553;BME280;21656;46.054;13.614;2023-05-01T15:14:25;100481.81;;;18.68;61.76
35553;BME280;21656;46.054;13.614;2023-05-01T15:16:51;100473.66;;;18.59;62.08
35553;BME280;21656;46.054;13.614;2023-05-01T15:19:16;100471.63;;;18.53;62.88
35553;BME280;21656;46.054;13.614;2023-05-01T15:21:43;100475.22;;;18.46;63.93
35553;BME280;21656;46.054;13.614;2023-05-01T15:24:08;100481.88;;;18.35;64.02
35553;BME280;21656;46.054;13.614;2023-05-01T15:26:34;100484.47;;;18.28;64.82
35553;BME280;21656;46.054;13.614;2023-05-01T15:28:59;100486.88;;;18.23;64.44
35553;BME280;21656;46.054;13.614;2023-05-01T15:31:24;100489.91;;;18.20;64.99
35553;BME280;21656;46.054;13.614;2023-05-01T15:33:50;100490.75;;;18.12;64.84
35553;BME280;21656;46.054;13.614;2023-05-01T15:36:15;100494.19;;;18.06;66.13
35553;BME280;21656;46.054;13.614;2023-05-01T15:38:40;100495.72;;;18.01;66.62
35553;BME280;21656;46.054;13.614;2023-05-01T15:41:05;100496.91;;;17.98;67.30
35553;BME280;21656;46.054;13.614;2023-05-01T15:43:31;100496.22;;;17.88;68.88
35553;BME280;21656;46.054;13.614;2023-05-01T15:45:56;100504.41;;;17.88;69.37
35553;BME280;21656;46.054;13.614;2023-05-01T15:48:23;100499.63;;;17.82;70.69
35553;BME280;21656;46.054;13.614;2023-05-01T15:50:48;100498.72;;;17.73;76.29
35553;BME280;21656;46.054;13.614;2023-05-01T15:53:14;100505.16;;;17.64;83.65
35553;BME280;21656;46.054;13.614;2023-05-01T15:55:40;100503.09;;;17.49;95.11
35553;BME280;21656;46.054;13.614;2023-05-01T15:58:06;100505.09;;;17.39;97.04
35553;BME280;21656;46.054;13.614;2023-05-01T16:00:31;100510.53;;;17.31;100.00
35553;BME280;21656;46.054;13.614;2023-05-01T16:03:00;100509.00;;;17.28;100.00
35553;BME280;21656;46.054;13.614;2023-05-01T16:05:25;100514.28;;;17.22;100.00
35553;BME280;21656;46.054;13.614;2023-05-01T16:07:52;100513.03;;;17.16;100.00
35553;BME280;21656;46.054;13.614;2023-05-01T16:10:18;100515.94;;;17.15;100.00
35553;BME280;21656;46.054;13.614;2023-05-01T16:12:44;100516.09;;;17.13;100.00
35553;BME280;21656;46.054;13.614;2023-05-01T16:15:10;100518.44;;;17.08;100.00
35553;BME280;21656;46.054;13.614;2023-05-01T16:17:42;100520.81;;;17.03;100.00
35553;BME280;21656;46.054;13.614;2023-05-01T16:20:08;100517.56;;;16.99;100.00
35553;BME280;21656;46.054;13.614;2023-05-01T16:22:34;100516.31;;;16.94;100.00
35553;BME280;21656;46.054;13.614;2023-05-01T16:25:00;100531.28;;;16.89;100.00
35553;BME280;21656;46.054;13.614;2023-05-01T16:27:25;100517.81;;;16.80;100.00
35553;BME280;21656;46.054;13.614;2023-05-01T16:29:50;100520.66;;;16.78;100.00
35553;BME280;21656;46.054;13.614;2023-05-01T16:32:16;100525.81;;;16.63;100.00
35553;BME280;21656;46.054;13.614;2023-05-01T16:34:41;100526.69;;;16.64;100.00
35553;BME280;21656;46.054;13.614;2023-05-01T16:37:06;100522.84;;;16.49;100.00
35553;BME280;21656;46.054;13.614;2023-05-01T16:39:34;100528.22;;;16.40;100.00
35553;BME280;21656;46.054;13.614;2023-05-01T16:41:59;100526.63;;;16.30;100.00
35553;BME280;21656;46.054;13.614;2023-05-01T16:44:25;100522.63;;;16.16;100.00
35553;BME280;21656;46.054;13.614;2023-05-01T16:46:52;100523.94;;;16.12;100.00
35553;BME280;21656;46.054;13.614;2023-05-01T16:49:18;100517.66;;;15.93;100.00
35553;BME280;21656;46.054;13.614;2023-05-01T16:51:43;100510.91;;;15.79;100.00
35553;BME280;21656;46.054;13.614;2023-05-01T16:54:09;100511.06;;;15.78;100.00
35553;BME280;21656;46.054;13.614;2023-05-01T16:56:34;100499.47;;;15.58;100.00
35553;BME280;21656;46.054;13.614;2023-05-01T16:59:00;100500.78;;;15.54;100.00
35553;BME280;21656;46.054;13.614;2023-05-01T17:01:25;100484.56;;;15.44;100.00
35553;BME280;21656;46.054;13.614;2023-05-01T17:03:50;100487.97;;;15.28;100.00
35553;BME280;21656;46.054;13.614;2023-05-01T17:06:15;100484.91;;;15.13;100.00
35553;BME280;21656;46.054;13.614;2023-05-01T17:08:41;100492.94;;;15.05;100.00
35553;BME280;21656;46.054;13.614;2023-05-01T17:11:10;100492.16;;;14.95;100.00
35553;BME280;21656;46.054;13.614;2023-05-01T17:13:35;100492.91;;;14.87;100.00
35553;BME280;21656;46.054;13.614;2023-05-01T17:16:01;100490.72;;;14.91;100.00
35553;BME280;21656;46.054;13.614;2023-05-01T17:18:26;100484.22;;;14.84;100.00
35553;BME280;21656;46.054;13.614;2023-05-01T17:20:51;100490.81;;;14.81;100.00
35553;BME280;21656;46.054;13.614;2023-05-01T17:23:16;100480.94;;;14.80;100.00
35553;BME280;21656;46.054;13.614;2023-05-01T17:25:42;100490.19;;;14.87;100.00
35553;BME280;21656;46.054;13.614;2023-05-01T17:28:08;100491.19;;;14.86;100.00
35553;BME280;21656;46.054;13.614;2023-05-01T17:30:33;100494.34;;;14.82;100.00
35553;BME280;21656;46.054;13.614;2023-05-01T17:32:58;100479.47;;;14.86;100.00
35553;BME280;21656;46.054;13.614;2023-05-01T17:35:24;100481.34;;;14.85;100.00
35553;BME280;21656;46.054;13.614;2023-05-01T17:37:50;100484.50;;;14.81;100.00
35553;BME280;21656;46.054;13.614;2023-05-01T17:40:15;100482.19;;;14.86;100.00
35553;BME280;21656;46.054;13.614;2023-05-01T17:42:40;100472.06;;;14.88;100.00
35553;BME280;21656;46.054;13.614;2023-05-01T17:45:06;100481.31;;;14.95;100.00
35553;BME280;21656;46.054;13.614;2023-05-01T17:47:33;100481.31;;;14.95;100.00
35553;BME280;21656;46.054;13.614;2023-05-01T17:49:59;100483.31;;;14.93;100.00
35553;BME280;21656;46.054;13.614;2023-05-01T17:52:24;100485.13;;;15.02;100.00
35553;BME280;21656;46.054;13.614;2023-05-01T17:54:50;100486.09;;;15.01;100.00
35553;BME280;21656;46.054;13.614;2023-05-01T17:57:15;100481.00;;;14.98;100.00
35553;BME280;21656;46.054;13.614;2023-05-01T17:59:41;100501.84;;;14.98;100.00
35553;BME280;21656;46.054;13.614;2023-05-01T18:02:06;100478.59;;;14.95;100.00
35553;BME280;21656;46.054;13.614;2023-05-01T18:04:32;100481.31;;;14.95;100.00
35553;BME280;21656;46.054;13.614;2023-05-01T18:06:57;100495.56;;;14.97;100.00
35553;BME280;21656;46.054;13.614;2023-05-01T18:09:23;100482.72;;;14.99;100.00
35553;BME280;21656;46.054;13.614;2023-05-01T18:11:48;100496.72;;;14.94;100.00
35553;BME280;21656;46.054;13.614;2023-05-01T18:14:13;100492.16;;;14.95;100.00
35553;BME280;21656;46.054;13.614;2023-05-01T18:16:38;100482.56;;;15.01;100.00
35553;BME280;21656;46.054;13.614;2023-05-01T18:19:04;100478.59;;;14.95;100.00
35553;BME280;21656;46.054;13.614;2023-05-01T18:21:29;100472.72;;;15.00;100.00
35553;BME280;21656;46.054;13.614;2023-05-01T18:23:54;100476.28;;;15.00;100.00
35553;BME280;21656;46.054;13.614;2023-05-01T18:26:19;100483.66;;;15.08;100.00
35553;BME280;21656;46.054;13.614;2023-05-01T18:28:45;100482.94;;;15.06;100.00
35553;BME280;21656;46.054;13.614;2023-05-01T18:31:10;100480.63;;;15.11;100.00
35553;BME280;21656;46.054;13.614;2023-05-01T18:33:36;100473.66;;;15.08;100.00
35553;BME280;21656;46.054;13.614;2023-05-01T18:36:01;100479.84;;;15.01;100.00
35553;BME280;21656;46.054;13.614;2023-05-01T18:38:26;100486.19;;;14.91;100.00
35553;BME280;21656;46.054;13.614;2023-05-01T18:40:52;100495.47;;;14.89;100.00
35553;BME280;21656;46.054;13.614;2023-05-01T18:43:17;100495.34;;;14.81;100.00
35553;BME280;21656;46.054;13.614;2023-05-01T18:45:42;100498.06;;;14.81;100.00
35553;BME280;21656;46.054;13.614;2023-05-01T18:48:08;100492.22;;;14.76;100.00
35553;BME280;21656;46.054;13.614;2023-05-01T18:50:33;100495.38;;;14.71;100.00
35553;BME280;21656;46.054;13.614;2023-05-01T18:52:58;100500.25;;;14.67;100.00
35553;BME280;21656;46.054;13.614;2023-05-01T18:55:23;100502.81;;;14.69;100.00
35553;BME280;21656;46.054;13.614;2023-05-01T18:57:49;100502.34;;;14.73;100.00
35553;BME280;21656;46.054;13.614;2023-05-01T19:00:15;100510.34;;;14.75;100.00
35553;BME280;21656;46.054;13.614;2023-05-01T19:02:41;100504.50;;;14.80;100.00